sensor_id;sensor_type;location;lat;lon;timestamp;pressure;altitude;pressure_sealevel;temperature;humidity
54194;BME280;40102;50.906;6.972;2023-03-04T00:01:12;101890.31;;;5.24;62.50
54194;BME280;40102;50.906;6.972;2023-03-04T00:03:37;101880.69;;;5.19;62.47
54194;BME280;40102;50.906;6.972;2023-03-04T00:06:03;101879.72;;;5.22;62.57
54194;BME280;40102;50.906;6.972;2023-03-04T00:08:29;101880.72;;;5.18;62.32
54194;BME280;40102;50.906;6.972;2023-03-04T00:10:54;101894.78;;;5.21;62.84
54194;BME280;40102;50.906;6.972;2023-03-04T00:13:20;101881.63;;;5.15;63.14
54194;BME280;40102;50.906;6.972;2023-03-04T00:15:47;101885.16;;;5.16;63.07
54194;BME280;40102;50.906;6.972;2023-03-04T00:18:12;101900.00;;;5.26;63.13
54194;BME280;40102;50.906;6.972;2023-03-04T00:20:38;101877.06;;;5.24;63.07
54194;BME280;40102;50.906;6.972;2023-03-04T00:23:03;101876.16;;;5.25;62.76
54194;BME280;40102;50.906;6.972;2023-03-04T00:25:29;101892.78;;;5.36;62.86
54194;BME280;40102;50.906;6.972;2023-03-04T00:27:54;101887.53;;;5.33;62.93
54194;BME280;40102;50.906;6.972;2023-03-04T00:30:19;101880.44;;;5.33;62.77
54194;BME280;40102;50.906;6.972;2023-03-04T00:32:45;101879.41;;;5.42;62.67
54194;BME280;40102;50.906;6.972;2023-03-04T00:38:13;101868.88;;;5.37;62.91
54194;BME280;40102;50.906;6.972;2023-03-04T00:40:39;101882.88;;;5.47;62.72
54194;BME280;40102;50.906;6.972;2023-03-04T00:43:04;101868.00;;;5.37;62.92
54194;BME280;40102;50.906;6.972;2023-03-04T00:45:30;101863.56;;;5.37;62.89
54194;BME280;40102;50.906;6.972;2023-03-04T00:47:55;101870.69;;;5.35;62.91
54194;BME280;40102;50.906;6.972;2023-03-04T00:50:20;101877.66;;;5.42;63.00
54194;BME280;40102;50.906;6.972;2023-03-04T00:52:46;101884.81;;;5.37;63.26
54194;BME280;40102;50.906;6.972;2023-03-04T00:55:11;101874.16;;;5.39;63.12
54194;BME280;40102;50.906;6.972;2023-03-04T00:57:37;101856.63;;;5.29;63.25
54194;BME280;40102;50.906;6.972;2023-03-04T01:00:06;101861.03;;;5.31;63.39
54194;BME280;40102;50.906;6.972;2023-03-04T01:02:31;101860.19;;;5.28;63.59
54194;BME280;40102;50.906;6.972;2023-03-04T01:04:56;101868.19;;;5.26;63.49
54194;BME280;40102;50.906;6.972;2023-03-04T01:07:22;101862.13;;;5.19;64.12
54194;BME280;40102;50.906;6.972;2023-03-04T01:09:50;101851.59;;;5.15;64.31
54194;BME280;40102;50.906;6.972;2023-03-04T01:12:16;101873.53;;;5.23;64.36
54194;BME280;40102;50.906;6.972;2023-03-04T01:14:41;101868.22;;;5.23;64.25
54194;BME280;40102;50.906;6.972;2023-03-04T01:17:07;101857.75;;;5.17;64.24
54194;BME280;40102;50.906;6.972;2023-03-04T01:19:32;101862.03;;;5.24;64.36
54194;BME280;40102;50.906;6.972;2023-03-04T01:21:57;101848.94;;;5.15;64.27
54194;BME280;40102;50.906;6.972;2023-03-04T01:24:23;101856.84;;;5.18;64.35
54194;BME280;40102;50.906;6.972;2023-03-04T01:26:48;101845.41;;;5.14;64.67
54194;BME280;40102;50.906;6.972;2023-03-04T01:29:14;101848.91;;;5.16;64.82
54194;BME280;40102;50.906;6.972;2023-03-04T01:31:39;101841.91;;;5.12;65.08
54194;BME280;40102;50.906;6.972;2023-03-04T01:34:04;101842.69;;;5.19;64.91
54194;BME280;40102;50.906;6.972;2023-03-04T01:36:30;101835.72;;;5.12;64.81
54194;BME280;40102;50.906;6.972;2023-03-04T01:38:55;101842.69;;;5.17;65.46
54194;BME280;40102;50.906;6.972;2023-03-04T01:41:24;101846.16;;;5.21;65.23
54194;BME280;40102;50.906;6.972;2023-03-04T01:43:51;101831.25;;;5.15;64.89
54194;BME280;40102;50.906;6.972;2023-03-04T01:46:17;101842.63;;;5.20;64.93
54194;BME280;40102;50.906;6.972;2023-03-04T01:48:45;101839.13;;;5.20;65.45
54194;BME280;40102;50.906;6.972;2023-03-04T01:51:18;101831.22;;;5.17;65.38
54194;BME280;40102;50.906;6.972;2023-03-04T01:53:46;101836.63;;;5.09;65.74
54194;BME280;40102;50.906;6.972;2023-03-04T01:56:50;101828.81;;;5.00;66.11
54194;BME280;40102;50.906;6.972;2023-03-04T02:01:45;101807.75;;;4.91;66.15
54194;BME280;40102;50.906;6.972;2023-03-04T02:04:11;101802.44;;;4.93;66.22
54194;BME280;40102;50.906;6.972;2023-03-04T02:06:38;101821.78;;;4.98;66.52
54194;BME280;40102;50.906;6.972;2023-03-04T02:09:04;101812.97;;;4.97;66.33
54194;BME280;40102;50.906;6.972;2023-03-04T02:11:30;101802.31;;;5.00;66.30
54194;BME280;40102;50.906;6.972;2023-03-04T02:13:57;101788.19;;;5.00;66.09
54194;BME280;40102;50.906;6.972;2023-03-04T02:16:22;101796.94;;;5.05;65.65
54194;BME280;40102;50.906;6.972;2023-03-04T02:18:48;101796.00;;;5.09;65.26
54194;BME280;40102;50.906;6.972;2023-03-04T02:21:22;101810.91;;;5.16;65.33
54194;BME280;40102;50.906;6.972;2023-03-04T02:26:25;101788.88;;;5.11;65.64
54194;BME280;40102;50.906;6.972;2023-03-04T02:28:53;101795.06;;;5.11;65.66
54194;BME280;40102;50.906;6.972;2023-03-04T02:31:35;101802.09;;;5.14;65.40
54194;BME280;40102;50.906;6.972;2023-03-04T02:34:04;101788.97;;;5.05;65.38
54194;BME280;40102;50.906;6.972;2023-03-04T02:36:31;101789.88;;;5.04;65.70
54194;BME280;40102;50.906;6.972;2023-03-04T02:39:06;101796.06;;;5.04;65.34
54194;BME280;40102;50.906;6.972;2023-03-04T02:41:32;101799.47;;;5.12;65.32
54194;BME280;40102;50.906;6.972;2023-03-04T02:43:57;101788.06;;;5.07;65.38
54194;BME280;40102;50.906;6.972;2023-03-04T02:46:23;101798.63;;;5.09;65.39
54194;BME280;40102;50.906;6.972;2023-03-04T02:48:50;101779.31;;;5.01;65.51
54194;BME280;40102;50.906;6.972;2023-03-04T02:51:15;101782.81;;;5.03;65.62
54194;BME280;40102;50.906;6.972;2023-03-04T02:53:41;101786.22;;;5.11;65.54
54194;BME280;40102;50.906;6.972;2023-03-04T02:56:07;101779.28;;;5.04;65.52
54194;BME280;40102;50.906;6.972;2023-03-04T02:58:32;101779.22;;;5.07;65.42
54194;BME280;40102;50.906;6.972;2023-03-04T03:00:57;101779.28;;;5.04;65.40
54194;BME280;40102;50.906;6.972;2023-03-04T03:03:24;101775.72;;;5.05;65.44
54194;BME280;40102;50.906;6.972;2023-03-04T03:05:49;101779.25;;;5.05;65.19
54194;BME280;40102;50.906;6.972;2023-03-04T03:08:15;101779.31;;;5.01;65.32
54194;BME280;40102;50.906;6.972;2023-03-04T03:10:41;101774.88;;;5.03;65.42
54194;BME280;40102;50.906;6.972;2023-03-04T03:13:06;101766.13;;;4.96;65.69
54194;BME280;40102;50.906;6.972;2023-03-04T03:15:31;101759.97;;;4.96;65.74
54194;BME280;40102;50.906;6.972;2023-03-04T03:17:57;101770.56;;;4.96;65.67
54194;BME280;40102;50.906;6.972;2023-03-04T03:20:23;101776.66;;;5.01;65.94
54194;BME280;40102;50.906;6.972;2023-03-04T03:22:48;101756.44;;;4.94;65.72
54194;BME280;40102;50.906;6.972;2023-03-04T03:25:14;101769.66;;;4.97;65.79
54194;BME280;40102;50.906;6.972;2023-03-04T03:27:40;101773.06;;;5.05;65.65
54194;BME280;40102;50.906;6.972;2023-03-04T03:30:07;101765.22;;;4.97;65.72
54194;BME280;40102;50.906;6.972;2023-03-04T03:32:33;101763.50;;;4.95;65.89
54194;BME280;40102;50.906;6.972;2023-03-04T03:34:58;101767.81;;;5.02;66.00
54194;BME280;40102;50.906;6.972;2023-03-04T03:37:23;101758.22;;;4.95;66.16
54194;BME280;40102;50.906;6.972;2023-03-04T03:39:49;101746.69;;;4.97;65.90
54194;BME280;40102;50.906;6.972;2023-03-04T03:42:14;101740.50;;;4.97;65.87
54194;BME280;40102;50.906;6.972;2023-03-04T03:44:40;101763.34;;;5.05;65.64
54194;BME280;40102;50.906;6.972;2023-03-04T03:47:05;101749.31;;;4.99;65.67
54194;BME280;40102;50.906;6.972;2023-03-04T03:49:31;101741.34;;;4.99;65.67
54194;BME280;40102;50.906;6.972;2023-03-04T03:51:56;101760.72;;;5.04;65.86
54194;BME280;40102;50.906;6.972;2023-03-04T03:54:21;101756.34;;;5.01;66.12
54194;BME280;40102;50.906;6.972;2023-03-04T03:56:47;101739.69;;;4.92;66.19
54194;BME280;40102;50.906;6.972;2023-03-04T03:59:12;101760.03;;;4.91;66.42
54194;BME280;40102;50.906;6.972;2023-03-04T04:01:37;101744.22;;;4.85;66.90
54194;BME280;40102;50.906;6.972;2023-03-04T04:04:03;101745.06;;;4.87;66.74
54194;BME280;40102;50.906;6.972;2023-03-04T04:06:29;101750.19;;;4.98;66.44
54194;BME280;40102;50.906;6.972;2023-03-04T04:08:54;101745.81;;;4.97;65.99
54194;BME280;40102;50.906;6.972;2023-03-04T04:11:20;101751.84;;;5.05;65.85
54194;BME280;40102;50.906;6.972;2023-03-04T04:13:48;101751.81;;;5.06;65.49
54194;BME280;40102;50.906;6.972;2023-03-04T04:16:13;101741.25;;;5.05;65.30
54194;BME280;40102;50.906;6.972;2023-03-04T04:18:39;101757.91;;;5.13;65.53
54194;BME280;40102;50.906;6.972;2023-03-04T04:21:04;101747.44;;;5.05;65.68
54194;BME280;40102;50.906;6.972;2023-03-04T04:23:30;101752.53;;;5.17;65.46
54194;BME280;40102;50.906;6.972;2023-03-04T04:25:56;101742.00;;;5.11;65.34
54194;BME280;40102;50.906;6.972;2023-03-04T04:28:22;101744.69;;;5.10;65.59
54194;BME280;40102;50.906;6.972;2023-03-04T04:30:48;101739.44;;;5.07;65.66
54194;BME280;40102;50.906;6.972;2023-03-04T04:33:14;101744.81;;;5.02;65.84
54194;BME280;40102;50.906;6.972;2023-03-04T04:35:40;101753.63;;;5.04;66.41
54194;BME280;40102;50.906;6.972;2023-03-04T04:38:08;101743.13;;;4.98;66.21
54194;BME280;40102;50.906;6.972;2023-03-04T04:40:34;101733.41;;;4.99;66.31
54194;BME280;40102;50.906;6.972;2023-03-04T04:42:59;101743.06;;;5.01;66.10
54194;BME280;40102;50.906;6.972;2023-03-04T04:45:25;101740.34;;;5.06;65.86
54194;BME280;40102;50.906;6.972;2023-03-04T04:47:54;101744.69;;;5.10;65.75
54194;BME280;40102;50.906;6.972;2023-03-04T04:50:24;101735.84;;;5.11;65.72
54194;BME280;40102;50.906;6.972;2023-03-04T04:52:50;101742.00;;;5.13;65.64
54194;BME280;40102;50.906;6.972;2023-03-04T04:55:16;101745.44;;;5.18;65.45
54194;BME280;40102;50.906;6.972;2023-03-04T04:57:42;101743.72;;;5.15;65.46
54194;BME280;40102;50.906;6.972;2023-03-04T05:03:04;101746.19;;;5.25;65.37
54194;BME280;40102;50.906;6.972;2023-03-04T05:05:29;101752.22;;;5.33;64.96
54194;BME280;40102;50.906;6.972;2023-03-04T05:07:54;101736.44;;;5.25;64.87
54194;BME280;40102;50.906;6.972;2023-03-04T05:10:19;101747.00;;;5.28;64.56
54194;BME280;40102;50.906;6.972;2023-03-04T05:12:45;101748.75;;;5.29;64.85
54194;BME280;40102;50.906;6.972;2023-03-04T05:15:10;101751.41;;;5.29;65.00
54194;BME280;40102;50.906;6.972;2023-03-04T05:17:35;101758.34;;;5.36;64.73
54194;BME280;40102;50.906;6.972;2023-03-04T05:20:01;101743.38;;;5.34;64.67
54194;BME280;40102;50.906;6.972;2023-03-04T05:22:27;101753.84;;;5.41;64.65
54194;BME280;40102;50.906;6.972;2023-03-04T05:24:52;101744.97;;;5.42;64.33
54194;BME280;40102;50.906;6.972;2023-03-04T05:27:17;101746.81;;;5.39;64.33
54194;BME280;40102;50.906;6.972;2023-03-04T05:29:42;101734.47;;;5.36;64.12
54194;BME280;40102;50.906;6.972;2023-03-04T05:32:10;101743.16;;;5.44;64.20
54194;BME280;40102;50.906;6.972;2023-03-04T05:34:36;101748.44;;;5.46;63.85
54194;BME280;40102;50.906;6.972;2023-03-04T05:37:01;101751.91;;;5.49;63.88
54194;BME280;40102;50.906;6.972;2023-03-04T05:39:26;101752.00;;;5.45;63.89
54194;BME280;40102;50.906;6.972;2023-03-04T05:41:52;101743.22;;;5.41;63.90
54194;BME280;40102;50.906;6.972;2023-03-04T05:44:17;101756.31;;;5.50;63.95
54194;BME280;40102;50.906;6.972;2023-03-04T05:46:43;101748.47;;;5.44;63.71
54194;BME280;40102;50.906;6.972;2023-03-04T05:49:08;101741.47;;;5.40;63.84
54194;BME280;40102;50.906;6.972;2023-03-04T05:51:33;101754.66;;;5.45;63.80
54194;BME280;40102;50.906;6.972;2023-03-04T05:53:59;101750.31;;;5.41;63.64
54194;BME280;40102;50.906;6.972;2023-03-04T05:56:24;101763.50;;;5.45;64.17
54194;BME280;40102;50.906;6.972;2023-03-04T05:58:49;101764.31;;;5.49;64.12
54194;BME280;40102;50.906;6.972;2023-03-04T06:01:17;101745.81;;;5.44;64.05
54194;BME280;40102;50.906;6.972;2023-03-04T06:03:42;101749.41;;;5.42;64.03
54194;BME280;40102;50.906;6.972;2023-03-04T06:06:08;101752.09;;;5.40;63.85
54194;BME280;40102;50.906;6.972;2023-03-04T06:08:33;101754.69;;;5.43;63.94
54194;BME280;40102;50.906;6.972;2023-03-04T06:10:58;101769.56;;;5.52;63.78
54194;BME280;40102;50.906;6.972;2023-03-04T06:13:24;101757.34;;;5.43;63.42
54194;BME280;40102;50.906;6.972;2023-03-04T06:15:54;101764.41;;;5.44;63.47
54194;BME280;40102;50.906;6.972;2023-03-04T06:18:20;101775.81;;;5.49;63.77
54194;BME280;40102;50.906;6.972;2023-03-04T06:20:46;101762.69;;;5.42;64.05
54194;BME280;40102;50.906;6.972;2023-03-04T06:23:11;101764.44;;;5.41;64.74
54194;BME280;40102;50.906;6.972;2023-03-04T06:25:36;101770.69;;;5.39;64.16
54194;BME280;40102;50.906;6.972;2023-03-04T06:28:02;101766.28;;;5.38;64.20
54194;BME280;40102;50.906;6.972;2023-03-04T06:30:27;101757.50;;;5.34;64.47
54194;BME280;40102;50.906;6.972;2023-03-04T06:32:53;101774.97;;;5.46;64.26
54194;BME280;40102;50.906;6.972;2023-03-04T06:35:18;101763.59;;;5.39;64.17
54194;BME280;40102;50.906;6.972;2023-03-04T06:37:43;101774.16;;;5.42;64.33
54194;BME280;40102;50.906;6.972;2023-03-04T06:40:09;101786.53;;;5.43;64.46
54194;BME280;40102;50.906;6.972;2023-03-04T06:42:35;101788.31;;;5.43;64.98
54194;BME280;40102;50.906;6.972;2023-03-04T06:45:02;101772.53;;;5.35;65.01
54194;BME280;40102;50.906;6.972;2023-03-04T06:47:28;101783.94;;;5.40;64.88
54194;BME280;40102;50.906;6.972;2023-03-04T06:49:53;101779.59;;;5.35;64.92
54194;BME280;40102;50.906;6.972;2023-03-04T06:52:19;101790.97;;;5.41;64.82
54194;BME280;40102;50.906;6.972;2023-03-04T06:54:44;101780.47;;;5.35;64.96
54194;BME280;40102;50.906;6.972;2023-03-04T06:57:09;101789.25;;;5.39;64.73
54194;BME280;40102;50.906;6.972;2023-03-04T06:59:35;101798.84;;;5.47;64.46
54194;BME280;40102;50.906;6.972;2023-03-04T07:02:00;101789.22;;;5.40;64.69
54194;BME280;40102;50.906;6.972;2023-03-04T07:04:26;101784.81;;;5.41;64.68
54194;BME280;40102;50.906;6.972;2023-03-04T07:06:51;101783.13;;;5.35;65.01
54194;BME280;40102;50.906;6.972;2023-03-04T07:09:18;101797.19;;;5.40;64.61
54194;BME280;40102;50.906;6.972;2023-03-04T07:11:44;101800.69;;;5.42;64.76
54194;BME280;40102;50.906;6.972;2023-03-04T07:14:09;101790.09;;;5.41;64.59
54194;BME280;40102;50.906;6.972;2023-03-04T07:16:35;101810.31;;;5.48;65.00
54194;BME280;40102;50.906;6.972;2023-03-04T07:19:00;101795.44;;;5.39;64.84
54194;BME280;40102;50.906;6.972;2023-03-04T07:21:26;101798.97;;;5.40;65.03
54194;BME280;40102;50.906;6.972;2023-03-04T07:23:51;101805.09;;;5.43;65.55
54194;BME280;40102;50.906;6.972;2023-03-04T07:26:17;101799.00;;;5.38;65.60
54194;BME280;40102;50.906;6.972;2023-03-04T07:28:42;101809.50;;;5.44;65.38
54194;BME280;40102;50.906;6.972;2023-03-04T07:31:16;101810.41;;;5.43;65.32
54194;BME280;40102;50.906;6.972;2023-03-04T07:33:44;101819.16;;;5.48;65.33
54194;BME280;40102;50.906;6.972;2023-03-04T07:36:09;101816.56;;;5.45;65.68
54194;BME280;40102;50.906;6.972;2023-03-04T07:38:35;101808.63;;;5.44;65.81
54194;BME280;40102;50.906;6.972;2023-03-04T07:41:01;101827.03;;;5.53;65.37
54194;BME280;40102;50.906;6.972;2023-03-04T07:43:26;101827.94;;;5.53;65.49
54194;BME280;40102;50.906;6.972;2023-03-04T07:45:52;101814.72;;;5.49;65.58
54194;BME280;40102;50.906;6.972;2023-03-04T07:48:22;101812.97;;;5.49;65.19
54194;BME280;40102;50.906;6.972;2023-03-04T07:50:47;101833.22;;;5.55;65.19
54194;BME280;40102;50.906;6.972;2023-03-04T07:53:12;101805.94;;;5.45;65.42
54194;BME280;40102;50.906;6.972;2023-03-04T07:55:38;101823.53;;;5.51;65.30
54194;BME280;40102;50.906;6.972;2023-03-04T07:58:03;101814.72;;;5.50;64.90
54194;BME280;40102;50.906;6.972;2023-03-04T08:00:28;101814.72;;;5.50;64.85
54194;BME280;40102;50.906;6.972;2023-03-04T08:02:54;101826.06;;;5.59;64.98
54194;BME280;40102;50.906;6.972;2023-03-04T08:05:32;101814.69;;;5.52;65.04
54194;BME280;40102;50.906;6.972;2023-03-04T08:07:57;101826.03;;;5.60;64.48
54194;BME280;40102;50.906;6.972;2023-03-04T08:10:22;101830.47;;;5.60;64.83
54194;BME280;40102;50.906;6.972;2023-03-04T08:12:48;101818.19;;;5.54;64.79
54194;BME280;40102;50.906;6.972;2023-03-04T08:15:15;101818.16;;;5.56;64.91
54194;BME280;40102;50.906;6.972;2023-03-04T08:17:41;101805.94;;;5.47;64.40
54194;BME280;40102;50.906;6.972;2023-03-04T08:20:06;101832.16;;;5.64;64.99
54194;BME280;40102;50.906;6.972;2023-03-04T08:22:32;101828.66;;;5.62;64.83
54194;BME280;40102;50.906;6.972;2023-03-04T08:24:57;101834.88;;;5.61;64.64
54194;BME280;40102;50.906;6.972;2023-03-04T08:27:22;101811.16;;;5.51;64.53
54194;BME280;40102;50.906;6.972;2023-03-04T08:29:48;101823.53;;;5.51;64.89
54194;BME280;40102;50.906;6.972;2023-03-04T08:32:13;101814.72;;;5.50;65.06
54194;BME280;40102;50.906;6.972;2023-03-04T08:34:38;101831.44;;;5.54;64.94
54194;BME280;40102;50.906;6.972;2023-03-04T08:37:04;101821.75;;;5.51;64.99
54194;BME280;40102;50.906;6.972;2023-03-04T08:39:30;101820.00;;;5.50;64.89
54194;BME280;40102;50.906;6.972;2023-03-04T08:41:57;101827.94;;;5.53;65.29
54194;BME280;40102;50.906;6.972;2023-03-04T08:44:22;101828.81;;;5.52;65.41
54194;BME280;40102;50.906;6.972;2023-03-04T08:46:48;101841.19;;;5.53;65.49
54194;BME280;40102;50.906;6.972;2023-03-04T08:49:14;101831.56;;;5.48;65.71
54194;BME280;40102;50.906;6.972;2023-03-04T08:51:39;101825.41;;;5.46;66.01
54194;BME280;40102;50.906;6.972;2023-03-04T08:54:05;101852.59;;;5.60;66.00
54194;BME280;40102;50.906;6.972;2023-03-04T08:56:30;101835.06;;;5.50;66.16
54194;BME280;40102;50.906;6.972;2023-03-04T08:58:56;101846.44;;;5.57;65.98
54194;BME280;40102;50.906;6.972;2023-03-04T09:01:21;101844.66;;;5.57;65.85
54194;BME280;40102;50.906;6.972;2023-03-04T09:03:46;101835.91;;;5.52;66.23
54194;BME280;40102;50.906;6.972;2023-03-04T09:06:16;101833.22;;;5.53;66.70
54194;BME280;40102;50.906;6.972;2023-03-04T09:08:42;101842.84;;;5.61;66.48
54194;BME280;40102;50.906;6.972;2023-03-04T09:11:08;101828.81;;;5.52;66.71
54194;BME280;40102;50.906;6.972;2023-03-04T09:13:33;101829.69;;;5.53;66.81
54194;BME280;40102;50.906;6.972;2023-03-04T09:15:59;101837.56;;;5.59;66.96
54194;BME280;40102;50.906;6.972;2023-03-04T09:18:25;101830.56;;;5.53;66.96
54194;BME280;40102;50.906;6.972;2023-03-04T09:20:51;101837.63;;;5.54;67.20
54194;BME280;40102;50.906;6.972;2023-03-04T09:23:17;101834.94;;;5.58;67.78
54194;BME280;40102;50.906;6.972;2023-03-04T09:25:43;101844.59;;;5.62;67.56
54194;BME280;40102;50.906;6.972;2023-03-04T09:28:11;101834.06;;;5.57;67.59
54194;BME280;40102;50.906;6.972;2023-03-04T09:30:36;101836.69;;;5.59;67.60
54194;BME280;40102;50.906;6.972;2023-03-04T09:33:02;101836.66;;;5.60;67.76
54194;BME280;40102;50.906;6.972;2023-03-04T09:35:27;101839.34;;;5.59;68.59
54194;BME280;40102;50.906;6.972;2023-03-04T09:37:57;101835.78;;;5.60;68.27
54194;BME280;40102;50.906;6.972;2023-03-04T09:40:26;101847.13;;;5.68;68.30
54194;BME280;40102;50.906;6.972;2023-03-04T09:43:01;101838.25;;;5.70;68.67
54194;BME280;40102;50.906;6.972;2023-03-04T09:45:40;101829.47;;;5.65;68.83
54194;BME280;40102;50.906;6.972;2023-03-04T09:48:09;101830.31;;;5.69;68.46
54194;BME280;40102;50.906;6.972;2023-03-04T09:50:49;101825.94;;;5.66;68.30
54194;BME280;40102;50.906;6.972;2023-03-04T09:53:25;101825.84;;;5.71;68.56
54194;BME280;40102;50.906;6.972;2023-03-04T09:55:54;101830.16;;;5.76;68.70
54194;BME280;40102;50.906;6.972;2023-03-04T10:04:05;101823.06;;;5.78;68.67
54194;BME280;40102;50.906;6.972;2023-03-04T10:06:30;101830.06;;;5.82;68.49
54194;BME280;40102;50.906;6.972;2023-03-04T10:09:10;101817.78;;;5.77;68.46
54194;BME280;40102;50.906;6.972;2023-03-04T10:11:44;101808.13;;;5.71;68.13
54194;BME280;40102;50.906;6.972;2023-03-04T10:14:32;101809.88;;;5.72;67.52
54194;BME280;40102;50.906;6.972;2023-03-04T10:17:15;101823.00;;;5.81;68.02
54194;BME280;40102;50.906;6.972;2023-03-04T10:22:19;101830.03;;;5.84;68.14
54194;BME280;40102;50.906;6.972;2023-03-04T10:24:47;101815.94;;;5.80;68.03
54194;BME280;40102;50.906;6.972;2023-03-04T10:27:16;101800.06;;;5.77;67.82
54194;BME280;40102;50.906;6.972;2023-03-04T10:29:42;101794.72;;;5.79;67.68
54194;BME280;40102;50.906;6.972;2023-03-04T10:32:13;101801.72;;;5.83;67.66
54194;BME280;40102;50.906;6.972;2023-03-04T10:34:40;101809.59;;;5.88;67.59
54194;BME280;40102;50.906;6.972;2023-03-04T10:37:06;101806.13;;;5.84;67.89
54194;BME280;40102;50.906;6.972;2023-03-04T10:39:41;101802.53;;;5.86;67.81
54194;BME280;40102;50.906;6.972;2023-03-04T10:44:43;101786.84;;;5.74;68.34
54194;BME280;40102;50.906;6.972;2023-03-04T10:47:10;101797.28;;;5.83;68.91
54194;BME280;40102;50.906;6.972;2023-03-04T10:49:50;101808.72;;;5.87;68.87
54194;BME280;40102;50.906;6.972;2023-03-04T10:52:26;101813.06;;;5.94;69.05
54194;BME280;40102;50.906;6.972;2023-03-04T10:54:57;101796.31;;;5.88;68.99
54194;BME280;40102;50.906;6.972;2023-03-04T10:58:01;101803.19;;;6.01;69.17
54194;BME280;40102;50.906;6.972;2023-03-04T11:00:31;101794.41;;;5.97;69.04
54194;BME280;40102;50.906;6.972;2023-03-04T11:05:47;101786.50;;;5.94;69.70
54194;BME280;40102;50.906;6.972;2023-03-04T11:08:22;101794.34;;;6.00;69.90
54194;BME280;40102;50.906;6.972;2023-03-04T11:10:48;101797.06;;;5.97;69.59
54194;BME280;40102;50.906;6.972;2023-03-04T11:13:23;101787.41;;;5.93;69.57
54194;BME280;40102;50.906;6.972;2023-03-04T11:16:00;101802.31;;;6.00;69.66
54194;BME280;40102;50.906;6.972;2023-03-04T11:18:42;101793.44;;;6.01;70.08
54194;BME280;40102;50.906;6.972;2023-03-04T11:21:22;101779.41;;;5.95;70.53
54194;BME280;40102;50.906;6.972;2023-03-04T11:24:01;101773.22;;;5.94;70.72
54194;BME280;40102;50.906;6.972;2023-03-04T11:29:04;101776.56;;;6.04;70.94
54194;BME280;40102;50.906;6.972;2023-03-04T11:31:36;101768.59;;;6.04;70.94
54194;BME280;40102;50.906;6.972;2023-03-04T11:36:52;101781.66;;;6.14;70.67
54194;BME280;40102;50.906;6.972;2023-03-04T11:39:26;101770.25;;;6.09;70.90
54194;BME280;40102;50.906;6.972;2023-03-04T11:42:05;101768.50;;;6.08;70.82
54194;BME280;40102;50.906;6.972;2023-03-04T11:44:35;101766.66;;;6.12;70.50
54194;BME280;40102;50.906;6.972;2023-03-04T11:47:18;101773.69;;;6.14;70.68
54194;BME280;40102;50.906;6.972;2023-03-04T11:49:58;101765.06;;;6.03;70.61
54194;BME280;40102;50.906;6.972;2023-03-04T11:52:41;101768.50;;;6.08;70.65
54194;BME280;40102;50.906;6.972;2023-03-04T11:55:35;101764.97;;;6.08;70.67
54194;BME280;40102;50.906;6.972;2023-03-04T11:58:25;101757.78;;;6.13;70.30
54194;BME280;40102;50.906;6.972;2023-03-04T12:01:07;101754.28;;;6.11;70.43
54194;BME280;40102;50.906;6.972;2023-03-04T12:03:53;101755.09;;;6.14;69.94
54194;BME280;40102;50.906;6.972;2023-03-04T12:15:18;101718.88;;;6.10;70.16
54194;BME280;40102;50.906;6.972;2023-03-04T12:20:43;101724.03;;;6.18;69.97
54194;BME280;40102;50.906;6.972;2023-03-04T12:28:56;101702.78;;;6.18;69.83
54194;BME280;40102;50.906;6.972;2023-03-04T12:31:33;101698.47;;;6.12;69.99
54194;BME280;40102;50.906;6.972;2023-03-04T12:48:35;101677.88;;;6.22;69.26
54194;BME280;40102;50.906;6.972;2023-03-04T12:51:16;101669.00;;;6.23;69.31
54194;BME280;40102;50.906;6.972;2023-03-04T12:54:02;101668.06;;;6.26;69.41
54194;BME280;40102;50.906;6.972;2023-03-04T12:57:11;101677.63;;;6.33;69.35
54194;BME280;40102;50.906;6.972;2023-03-04T12:59:48;101681.09;;;6.36;69.31
54194;BME280;40102;50.906;6.972;2023-03-04T13:02:36;101682.84;;;6.37;69.27
54194;BME280;40102;50.906;6.972;2023-03-04T13:08:06;101670.19;;;6.48;69.75
54194;BME280;40102;50.906;6.972;2023-03-04T13:10:32;101646.44;;;6.41;69.11
54194;BME280;40102;50.906;6.972;2023-03-04T13:12:59;101653.47;;;6.43;69.02
54194;BME280;40102;50.906;6.972;2023-03-04T13:15:37;101658.72;;;6.46;69.21
54194;BME280;40102;50.906;6.972;2023-03-04T13:18:32;101653.53;;;6.40;69.66
54194;BME280;40102;50.906;6.972;2023-03-04T13:21:20;101643.91;;;6.36;69.66
54194;BME280;40102;50.906;6.972;2023-03-04T13:23:47;101623.66;;;6.31;69.90
54194;BME280;40102;50.906;6.972;2023-03-04T13:26:33;101640.34;;;6.37;70.09
54194;BME280;40102;50.906;6.972;2023-03-04T13:29:31;101631.53;;;6.35;70.08
54194;BME280;40102;50.906;6.972;2023-03-04T13:32:10;101629.78;;;6.34;69.55
54194;BME280;40102;50.906;6.972;2023-03-04T13:34:49;101632.34;;;6.37;69.95
54194;BME280;40102;50.906;6.972;2023-03-04T13:37:33;101633.22;;;6.38;69.99
54194;BME280;40102;50.906;6.972;2023-03-04T13:42:52;101630.53;;;6.39;69.70
54194;BME280;40102;50.906;6.972;2023-03-04T13:45:35;101636.59;;;6.46;69.49
54194;BME280;40102;50.906;6.972;2023-03-04T13:48:04;101618.13;;;6.40;69.78
54194;BME280;40102;50.906;6.972;2023-03-04T13:50:34;101612.84;;;6.38;69.26
54194;BME280;40102;50.906;6.972;2023-03-04T13:53:37;101630.34;;;6.47;69.45
54194;BME280;40102;50.906;6.972;2023-03-04T13:58:51;101610.94;;;6.43;69.54
54194;BME280;40102;50.906;6.972;2023-03-04T14:01:26;101609.22;;;6.42;69.52
54194;BME280;40102;50.906;6.972;2023-03-04T14:03:53;101610.94;;;6.43;70.26
54194;BME280;40102;50.906;6.972;2023-03-04T14:06:20;101612.69;;;6.44;70.37
54194;BME280;40102;50.906;6.972;2023-03-04T14:08:47;101616.16;;;6.48;70.26
54194;BME280;40102;50.906;6.972;2023-03-04T14:11:17;101594.22;;;6.40;70.31
54194;BME280;40102;50.906;6.972;2023-03-04T14:13:48;101602.88;;;6.48;70.54
54194;BME280;40102;50.906;6.972;2023-03-04T14:16:19;101587.84;;;6.47;70.65
54194;BME280;40102;50.906;6.972;2023-03-04T14:19:06;101605.50;;;6.49;70.91